Time;durP1;ratioP1;P1;durP2;ratioP2;P2;SDS_P1;SDS_P2;PMS_P1;PMS_P2;Temp;Humidity;BMP_temperature;BMP_pressure;BME280_temperature;BME280_humidity;BME280_pressure;Samples;Min_cycle;Max_cycle;Signal;HPM_P1;HPM_P2
2024/01/23 00:01:22;;;;;;;26.70;18.20;;;;;;;-1.31;76.09;100279.67;107340;1254;60206;-40
2024/01/23 00:03:50;;;;;;;28.50;17.80;;;;;;;-1.24;75.92;100276.35;107339;1254;60501;-40
2024/01/23 00:06:18;;;;;;;30.10;19.00;;;;;;;-1.26;76.11;100276.02;107333;1254;74252;-39
2024/01/23 00:08:46;;;;;;;26.30;17.10;;;;;;;-1.28;76.06;100285.42;106617;1254;1003819;-40
2024/01/23 00:11:14;;;;;;;25.20;15.40;;;;;;;-1.31;76.17;100284.20;107320;1254;72678;-40
2024/01/23 00:13:41;;;;;;;22.40;15.20;;;;;;;-1.27;75.99;100283.10;107365;1254;60841;-40
2024/01/23 00:16:09;;;;;;;22.90;15.60;;;;;;;-1.23;75.69;100272.22;107424;1254;60377;-41
2024/01/23 00:18:36;;;;;;;28.10;17.40;;;;;;;-1.24;75.87;100268.33;107334;1254;73821;-40
2024/01/23 00:21:04;;;;;;;26.50;17.40;;;;;;;-1.27;75.74;100253.95;107325;1260;67326;-40
2024/01/23 00:23:32;;;;;;;25.70;16.50;;;;;;;-1.28;75.91;100241.76;107334;1254;73199;-40
2024/01/23 00:25:59;;;;;;;23.70;15.50;;;;;;;-1.23;75.90;100235.66;107314;1254;59837;-40
2024/01/23 00:28:26;;;;;;;23.50;15.00;;;;;;;-1.17;75.57;100240.90;107432;1254;60437;-40
2024/01/23 00:30:54;;;;;;;25.70;16.50;;;;;;;-1.19;75.69;100237.92;107436;1257;72797;-40
2024/01/23 00:33:22;;;;;;;31.10;16.90;;;;;;;-1.23;75.94;100230.70;107450;1254;68346;-40
2024/01/23 00:35:49;;;;;;;26.10;16.60;;;;;;;-1.24;75.95;100233.94;107437;1254;72453;-40
2024/01/23 00:38:17;;;;;;;27.60;18.20;;;;;;;-1.19;75.66;100234.14;106697;1254;1003008;-40
2024/01/23 00:40:45;;;;;;;38.40;21.80;;;;;;;-1.13;75.41;100227.82;107477;1254;60326;-40
2024/01/23 00:43:14;;;;;;;22.70;15.60;;;;;;;-1.14;75.68;100212.91;107466;1254;73846;-41
2024/01/23 00:45:42;;;;;;;21.50;12.70;;;;;;;-1.17;75.56;100222.16;107466;1254;68388;-40
2024/01/23 00:48:09;;;;;;;26.30;16.40;;;;;;;-1.20;75.71;100210.29;106719;1254;1003013;-40
2024/01/23 00:50:37;;;;;;;21.80;14.00;;;;;;;-1.14;75.44;100209.94;107418;1254;60932;-40
2024/01/23 00:53:05;;;;;;;22.90;14.30;;;;;;;-1.07;75.21;100205.27;107461;1254;60502;-41
2024/01/23 00:55:32;;;;;;;20.10;13.70;;;;;;;-1.06;75.35;100201.33;107447;1254;73817;-40
2024/01/23 00:58:00;;;;;;;22.30;14.50;;;;;;;-1.07;75.22;100208.64;107312;1253;68492;-40
2024/01/23 01:00:27;;;;;;;22.00;14.30;;;;;;;-1.09;75.26;100215.42;107320;1257;70472;-40
2024/01/23 01:02:55;;;;;;;20.00;13.50;;;;;;;-1.12;75.36;100222.55;107343;1255;60386;-40
2024/01/23 01:05:22;;;;;;;20.90;13.00;;;;;;;-1.08;75.18;100209.27;107335;1254;60607;-40
2024/01/23 01:07:50;;;;;;;19.30;13.20;;;;;;;-1.02;75.17;100203.75;107419;1253;72573;-40
2024/01/23 01:10:18;;;;;;;20.50;13.70;;;;;;;-1.04;75.05;100200.98;107434;1254;67107;-40
2024/01/23 01:12:46;;;;;;;21.60;13.40;;;;;;;-1.06;75.27;100204.73;107297;1254;72695;-40
2024/01/23 01:15:14;;;;;;;20.80;13.20;;;;;;;-1.08;75.28;100200.02;107358;1253;60369;-41
2024/01/23 01:17:41;;;;;;;19.40;11.80;;;;;;;-1.04;75.14;100197.46;107269;1259;60722;-40
2024/01/23 01:20:10;;;;;;;17.20;11.60;;;;;;;-0.97;74.84;100191.52;107434;1254;73931;-40
2024/01/23 01:22:38;;;;;;;20.00;12.80;;;;;;;-0.98;74.82;100187.59;107418;1254;67459;-40
2024/01/23 01:25:06;;;;;;;19.60;12.20;;;;;;;-0.99;75.06;100185.66;107468;1254;72695;-40
2024/01/23 01:27:33;;;;;;;21.40;11.90;;;;;;;-1.01;75.01;100188.16;107416;1253;60399;-40
2024/01/23 01:30:03;;;;;;;19.00;12.60;;;;;;;-0.99;74.86;100178.58;107435;1253;60378;-40
2024/01/23 01:32:30;;;;;;;18.50;12.10;;;;;;;-0.92;74.77;100175.29;107477;1254;72546;-41
2024/01/23 01:34:58;;;;;;;20.80;11.80;;;;;;;-0.91;74.70;100178.44;107506;1258;67091;-41
2024/01/23 01:37:25;;;;;;;18.70;13.10;;;;;;;-0.95;74.83;100176.19;107450;1254;70179;-40
2024/01/23 01:39:54;;;;;;;21.00;12.60;;;;;;;-0.97;74.81;100165.48;107463;1254;60444;-40
2024/01/23 01:42:21;;;;;;;18.70;11.60;;;;;;;-0.98;74.91;100170.07;107420;1259;60520;-40
2024/01/23 01:44:50;;;;;;;20.10;11.00;;;;;;;-0.94;75.14;100169.38;107405;1256;73851;-40
2024/01/23 01:47:18;;;;;;;17.50;11.50;;;;;;;-0.92;74.80;100167.63;107472;1259;68527;-40
2024/01/23 01:49:46;;;;;;;18.80;11.80;;;;;;;-0.92;74.96;100158.20;107438;1257;72648;-41
2024/01/23 01:52:14;;;;;;;18.30;12.20;;;;;;;-0.95;75.02;100159.52;107435;1253;60616;-41
2024/01/23 01:54:42;;;;;;;17.00;11.10;;;;;;;-0.97;75.16;100159.27;107427;1254;60303;-40
2024/01/23 01:57:09;;;;;;;16.60;11.30;;;;;;;-0.92;74.93;100157.45;107269;1254;73929;-40
2024/01/23 01:59:37;;;;;;;19.20;11.60;;;;;;;-0.86;75.02;100160.48;107371;1254;68808;-40
2024/01/23 02:02:07;;;;;;;16.60;11.40;;;;;;;-0.87;74.83;100159.27;107361;1254;71406;-40
2024/01/23 02:04:34;;;;;;;18.80;12.00;;;;;;;-0.89;74.96;100156.66;107263;1254;60361;-40
2024/01/23 02:07:02;;;;;;;18.80;12.10;;;;;;;-0.97;75.05;100138.93;106576;1254;1002920;-40
2024/01/23 02:09:30;;;;;;;19.50;10.90;;;;;;;-0.91;75.13;100138.73;107309;1254;73881;-40
2024/01/23 02:11:59;;;;;;;16.90;10.70;;;;;;;-0.86;74.79;100139.63;107334;1254;68358;-40
2024/01/23 02:14:28;;;;;;;17.70;11.10;;;;;;;-0.85;74.83;100134.36;107179;1256;72656;-41
2024/01/23 02:16:55;;;;;;;17.70;11.80;;;;;;;-0.88;74.96;100119.98;107348;1254;60395;-41
2024/01/23 02:19:23;;;;;;;17.90;11.40;;;;;;;-0.91;74.94;100118.70;107352;1259;60264;-40
2024/01/23 02:21:50;;;;;;;16.80;11.30;;;;;;;-0.92;74.93;100127.70;107228;1260;73945;-40
2024/01/23 02:24:18;;;;;;;16.00;10.80;;;;;;;-0.89;74.97;100125.41;107436;1259;68531;-40
2024/01/23 02:26:45;;;;;;;18.90;11.00;;;;;;;-0.84;74.47;100121.76;107474;1254;73120;-40
2024/01/23 02:29:15;;;;;;;16.10;11.30;;;;;;;-0.85;74.73;100116.90;107405;1256;59574;-40
2024/01/23 02:31:43;;;;;;;21.10;11.40;;;;;;;-0.88;74.93;100113.28;107471;1259;60329;-41
2024/01/23 02:34:11;;;;;;;17.20;11.50;;;;;;;-0.91;74.83;100109.71;107463;1253;73870;-40
2024/01/23 02:36:41;;;;;;;18.10;10.70;;;;;;;-0.91;74.92;100099.81;107497;1254;68395;-40
2024/01/23 02:39:08;;;;;;;17.80;10.90;;;;;;;-0.85;74.74;100101.83;107502;1259;72955;-40
2024/01/23 02:41:38;;;;;;;14.00;10.50;;;;;;;-0.83;74.67;100093.96;107574;1253;60363;-39
2024/01/23 02:44:05;;;;;;;17.10;11.50;;;;;;;-0.86;74.77;100090.38;107221;1254;408063;-40
2024/01/23 02:48:36;;;;;;;16.60;10.90;;;;;;;-0.91;74.96;100081.61;104149;1293;615900;-40
2024/01/23 02:51:03;;;;;;;16.00;10.20;;;;;;;-0.87;75.01;100079.79;106836;1267;60944;-41
2024/01/23 02:53:30;;;;;;;18.20;11.70;;;;;;;-0.82;74.68;100077.40;106769;1268;60107;-40
2024/01/23 02:55:57;;;;;;;16.30;11.70;;;;;;;-0.85;74.71;100070.63;107236;1258;72629;-41
2024/01/23 02:58:24;;;;;;;19.40;11.90;;;;;;;-0.87;74.66;100068.89;107297;1257;67370;-41
2024/01/23 03:00:51;;;;;;;17.40;11.60;;;;;;;-0.91;74.73;100065.10;107128;1255;121975;-40
2024/01/23 03:03:17;;;;;;;17.20;11.40;;;;;;;-0.97;75.09;100068.08;107492;1254;59898;-40
2024/01/23 03:05:44;;;;;;;16.20;10.60;;;;;;;-0.93;74.92;100069.26;107501;1254;60731;-41
2024/01/23 03:08:11;;;;;;;17.90;11.50;;;;;;;-0.90;74.80;100070.80;107521;1254;72682;-40
2024/01/23 03:10:38;;;;;;;16.90;11.60;;;;;;;-0.92;74.68;100073.94;107457;1254;69181;-40
2024/01/23 03:13:04;;;;;;;17.30;11.40;;;;;;;-0.97;74.92;100078.94;107310;1254;73059;-40
2024/01/23 03:15:31;;;;;;;17.30;11.80;;;;;;;-1.04;75.26;100081.86;107245;1257;59743;-40
2024/01/23 03:17:58;;;;;;;17.90;11.60;;;;;;;-1.08;75.08;100082.88;107253;1258;59609;-41
2024/01/23 03:20:29;;;;;;;17.90;11.20;;;;;;;-1.06;75.26;100104.54;107309;1259;71683;-41
2024/01/23 03:22:56;;;;;;;18.00;11.50;;;;;;;-1.05;75.04;100095.23;107303;1259;68970;-40
2024/01/23 03:25:24;;;;;;;15.30;10.70;;;;;;;-1.08;75.02;100091.45;107311;1259;73076;-41
2024/01/23 03:27:51;;;;;;;16.30;11.40;;;;;;;-1.11;75.39;100088.73;107289;1256;59759;-40
2024/01/23 03:30:28;;;;;;;18.10;10.80;;;;;;;-1.15;75.26;100086.86;107212;1262;60293;-41
2024/01/23 03:32:56;;;;;;;14.40;9.60;;;;;;;-1.11;75.23;100088.13;107289;1257;71742;-40
2024/01/23 03:35:23;;;;;;;16.30;10.10;;;;;;;-1.08;74.87;100084.16;107211;1257;69706;-41
2024/01/23 03:37:49;;;;;;;13.00;9.90;;;;;;;-1.12;74.88;100082.23;107267;1257;72472;-40
2024/01/23 03:40:16;;;;;;;15.60;10.60;;;;;;;-1.16;74.95;100080.73;107195;1257;59634;-40
2024/01/23 03:42:43;;;;;;;16.30;10.40;;;;;;;-1.19;75.00;100077.59;106465;1257;1003701;-40
2024/01/23 03:45:10;;;;;;;13.80;10.20;;;;;;;-1.18;75.16;100084.61;107247;1256;72579;-41
2024/01/23 03:47:36;;;;;;;14.90;10.10;;;;;;;-1.13;74.90;100084.63;107343;1258;68490;-40
2024/01/23 03:50:04;;;;;;;14.00;9.90;;;;;;;-1.15;74.81;100090.20;107321;1259;73054;-41
2024/01/23 03:52:31;;;;;;;15.80;10.70;;;;;;;-1.18;74.81;100083.92;107303;1259;59530;-40
2024/01/23 03:54:58;;;;;;;15.90;11.00;;;;;;;-1.22;74.94;100080.46;107311;1257;60088;-40
2024/01/23 03:57:25;;;;;;;17.80;10.40;;;;;;;-1.25;74.99;100087.37;107303;1257;73253;-40
2024/01/23 03:59:51;;;;;;;16.00;9.60;;;;;;;-1.19;74.93;100086.91;107407;1260;69101;-40
2024/01/23 04:02:20;;;;;;;15.00;10.20;;;;;;;-1.15;74.83;100082.55;107290;1257;73097;-40
2024/01/23 04:04:47;;;;;;;16.20;10.10;;;;;;;-1.17;75.01;100072.39;107259;1257;60079;-40
2024/01/23 04:07:14;;;;;;;16.30;10.00;;;;;;;-1.20;74.98;100075.34;107280;1260;60004;-40
2024/01/23 04:09:42;;;;;;;16.20;11.00;;;;;;;-1.23;75.29;100069.23;107377;1258;73404;-40
2024/01/23 04:12:09;;;;;;;18.40;10.20;;;;;;;-1.23;75.29;100070.61;107392;1260;68663;-41
2024/01/23 04:14:35;;;;;;;16.30;9.90;;;;;;;-1.16;75.36;100072.92;107300;1260;73165;-40
2024/01/23 04:17:02;;;;;;;16.90;11.00;;;;;;;-1.13;74.97;100068.40;107161;1258;59606;-40
2024/01/23 04:19:29;;;;;;;14.90;10.50;;;;;;;-1.15;75.18;100062.21;107340;1258;60199;-40
2024/01/23 04:21:58;;;;;;;16.70;10.40;;;;;;;-1.16;75.39;100065.52;107327;1260;73636;-40
2024/01/23 04:24:24;;;;;;;14.40;9.20;;;;;;;-1.17;75.32;100062.65;107312;1260;69343;-41
2024/01/23 04:26:51;;;;;;;15.10;9.60;;;;;;;-1.10;75.16;100058.08;107274;1260;73288;-40
2024/01/23 04:29:18;;;;;;;16.00;10.40;;;;;;;-1.08;74.94;100062.23;107282;1257;59509;-40
2024/01/23 04:31:44;;;;;;;16.40;11.00;;;;;;;-1.09;75.11;100065.15;107231;1260;60238;-40
2024/01/23 04:34:11;;;;;;;15.50;10.30;;;;;;;-1.12;75.07;100055.57;107272;1258;73574;-40
2024/01/23 04:36:38;;;;;;;15.30;10.30;;;;;;;-1.15;75.45;100071.10;107222;1256;69326;-41
2024/01/23 04:39:05;;;;;;;16.00;9.50;;;;;;;-1.10;75.10;100071.91;107249;1258;73337;-40
2024/01/23 04:41:32;;;;;;;14.30;9.60;;;;;;;-1.07;75.10;100075.11;107263;1257;59651;-40
2024/01/23 04:43:58;;;;;;;17.60;10.60;;;;;;;-1.10;75.14;100070.79;107250;1260;60018;-40
2024/01/23 04:46:25;;;;;;;15.20;10.60;;;;;;;-1.13;75.08;100069.46;107244;1257;73591;-40
2024/01/23 04:48:52;;;;;;;14.90;10.10;;;;;;;-1.14;75.14;100076.48;107262;1260;59521;-40
2024/01/23 04:51:18;;;;;;;14.50;9.70;;;;;;;-1.08;75.03;100072.71;107320;1260;73579;-40
2024/01/23 04:53:45;;;;;;;14.40;9.80;;;;;;;-1.04;74.82;100064.89;107332;1260;59552;-41
2024/01/23 04:56:12;;;;;;;15.60;10.50;;;;;;;-1.12;74.88;100061.20;107312;1257;60515;-40
2024/01/23 04:58:39;;;;;;;17.40;9.60;;;;;;;-1.08;74.88;100061.59;107293;1260;73326;-40
2024/01/23 05:01:06;;;;;;;13.50;9.20;;;;;;;-1.10;74.89;100064.45;107254;1260;69367;-40
2024/01/23 05:03:33;;;;;;;17.40;9.90;;;;;;;-1.06;75.00;100064.98;107317;1260;73221;-40
2024/01/23 05:06:00;;;;;;;14.90;9.90;;;;;;;-1.01;74.81;100054.66;107307;1260;59671;-41
2024/01/23 05:08:27;;;;;;;15.70;10.00;;;;;;;-1.01;74.91;100053.40;107383;1260;60089;-40
2024/01/23 05:10:53;;;;;;;14.60;9.60;;;;;;;-1.04;74.86;100050.68;107301;1258;73420;-40
2024/01/23 05:13:20;;;;;;;17.10;10.70;;;;;;;-1.05;74.99;100052.27;107330;1258;68971;-40
2024/01/23 05:15:47;;;;;;;16.70;9.20;;;;;;;-1.02;74.79;100051.05;107343;1260;72076;-40
2024/01/23 05:18:13;;;;;;;14.60;9.70;;;;;;;-0.94;74.32;100053.29;107337;1258;59562;-40
2024/01/23 05:20:40;;;;;;;20.50;11.40;;;;;;;-0.94;74.52;100055.41;107330;1257;59568;-40
2024/01/23 05:23:07;;;;;;;25.60;17.60;;;;;;;-0.97;74.44;100053.92;107286;1259;73406;-40
2024/01/23 05:25:35;;;;;;;23.90;17.00;;;;;;;-0.99;74.41;100048.98;107310;1257;67923;-40
2024/01/23 05:28:02;;;;;;;141.60;77.80;;;;;;;-1.02;74.62;100050.58;107276;1260;72811;-41
2024/01/23 05:30:28;;;;;;;30.50;19.10;;;;;;;-0.96;74.47;100047.70;107276;1257;61004;-40
2024/01/23 05:32:55;;;;;;;24.90;15.20;;;;;;;-0.90;74.11;100052.42;107303;1257;60010;-41
2024/01/23 05:35:22;;;;;;;33.40;16.90;;;;;;;-0.92;74.20;100050.25;107344;1258;71583;-41
2024/01/23 05:37:49;;;;;;;46.70;22.70;;;;;;;-0.94;74.23;100035.63;107332;1260;69287;-40
2024/01/23 05:40:16;;;;;;;108.80;41.00;;;;;;;-0.97;74.14;100039.12;106282;1260;1003824;-41
2024/01/23 05:42:43;;;;;;;47.00;21.00;;;;;;;-0.98;74.19;100029.45;107283;1258;61260;-40
2024/01/23 05:45:10;;;;;;;56.30;25.30;;;;;;;-0.92;73.97;100027.05;107284;1258;59979;-40
2024/01/23 05:47:37;;;;;;;58.50;30.20;;;;;;;-0.91;73.97;100025.77;107284;1258;71531;-40
2024/01/23 05:50:05;;;;;;;45.60;27.30;;;;;;;-0.94;73.72;100020.77;107324;1260;69116;-40
2024/01/23 05:52:32;;;;;;;18.80;12.70;;;;;;;-0.98;73.85;100020.24;107319;1260;71416;-41
2024/01/23 05:54:59;;;;;;;19.30;13.70;;;;;;;-0.99;74.03;100017.09;107288;1260;59535;-41
2024/01/23 05:57:26;;;;;;;20.40;13.70;;;;;;;-0.95;74.01;100014.91;107259;1257;59512;-41
2024/01/23 05:59:53;;;;;;;19.20;12.50;;;;;;;-0.88;73.78;100014.96;107242;1260;73519;-40
2024/01/23 06:02:20;;;;;;;14.50;10.60;;;;;;;-0.89;73.45;100019.33;107250;1257;67752;-40
2024/01/23 06:04:46;;;;;;;16.30;11.30;;;;;;;-0.90;73.55;100013.73;107224;1258;71980;-40
2024/01/23 06:07:13;;;;;;;17.20;11.30;;;;;;;-0.93;73.93;100024.38;107219;1258;59759;-40
2024/01/23 06:09:40;;;;;;;17.00;12.50;;;;;;;-0.97;73.56;100013.84;107284;1257;60157;-40
2024/01/23 06:12:06;;;;;;;48.00;26.90;;;;;;;-0.89;73.46;100009.89;107290;1260;73579;-40
2024/01/23 06:14:33;;;;;;;39.00;23.10;;;;;;;-0.82;73.11;100013.83;107300;1260;69214;-40
2024/01/23 06:17:00;;;;;;;51.80;28.80;;;;;;;-0.83;73.09;100011.55;107282;1260;73239;-40
2024/01/23 06:19:27;;;;;;;36.10;19.80;;;;;;;-0.85;73.21;100005.52;107315;1260;59951;-39
2024/01/23 06:21:54;;;;;;;35.90;18.30;;;;;;;-0.88;73.28;100009.27;107352;1257;60244;-39
2024/01/23 06:24:21;;;;;;;33.40;17.90;;;;;;;-0.91;73.24;100018.09;107329;1258;73593;-41
2024/01/23 06:26:48;;;;;;;32.90;17.80;;;;;;;-0.85;73.00;100018.46;107313;1260;68944;-38
2024/01/23 06:29:15;;;;;;;28.50;15.80;;;;;;;-0.84;72.84;100027.41;107244;1260;73069;-40
2024/01/23 06:31:43;;;;;;;59.30;27.80;;;;;;;-0.89;72.91;100023.11;107242;1261;59746;-39
2024/01/23 06:34:10;;;;;;;44.80;25.70;;;;;;;-0.92;73.20;100028.59;107444;1259;60018;-40
2024/01/23 06:36:38;;;;;;;28.20;17.20;;;;;;;-1.01;73.23;100025.98;107283;1259;72614;-40
2024/01/23 06:39:05;;;;;;;22.30;14.20;;;;;;;-0.89;73.21;100035.08;107250;1260;67145;-40
2024/01/23 06:41:32;;;;;;;23.70;15.40;;;;;;;-0.83;73.14;100039.77;107216;1258;72760;-40
2024/01/23 06:43:59;;;;;;;25.30;16.40;;;;;;;-0.81;73.09;100039.70;107209;1260;60158;-40
2024/01/23 06:46:25;;;;;;;20.50;14.40;;;;;;;-0.82;73.12;100035.13;107257;1260;61066;-40
2024/01/23 06:48:52;;;;;;;22.30;15.00;;;;;;;-0.83;73.21;100042.97;107226;1258;73378;-40
2024/01/23 06:51:21;;;;;;;23.70;14.80;;;;;;;-0.81;73.23;100037.20;107292;1257;69227;-40
2024/01/23 06:53:48;;;;;;;19.20;13.20;;;;;;;-0.73;73.02;100036.77;107293;1258;72649;-40
2024/01/23 06:56:14;;;;;;;19.10;13.10;;;;;;;-0.68;72.98;100043.95;107289;1258;60540;-40
2024/01/23 06:58:41;;;;;;;23.00;14.10;;;;;;;-0.69;72.83;100039.21;107264;1260;60322;-40
2024/01/23 07:01:08;;;;;;;18.90;12.90;;;;;;;-0.68;72.81;100036.60;107292;1257;74603;-40
2024/01/23 07:03:34;;;;;;;21.50;12.70;;;;;;;-0.67;72.73;100038.95;107280;1257;69139;-40
2024/01/23 07:06:01;;;;;;;16.30;11.40;;;;;;;-0.62;72.64;100034.84;107296;1257;73188;-40
2024/01/23 07:08:29;;;;;;;19.60;12.30;;;;;;;-0.54;72.11;100035.66;107319;1257;59678;-40
2024/01/23 07:10:56;;;;;;;35.60;21.80;;;;;;;-0.51;72.16;100034.92;107268;1258;60316;-40
2024/01/23 07:13:22;;;;;;;39.60;22.10;;;;;;;-0.52;72.11;100033.48;107316;1258;74380;-40
2024/01/23 07:15:49;;;;;;;30.70;16.70;;;;;;;-0.53;72.19;100023.20;107307;1260;67492;-40
2024/01/23 07:18:16;;;;;;;24.10;15.20;;;;;;;-0.53;72.23;100038.16;107277;1261;73218;-41
2024/01/23 07:20:43;;;;;;;30.90;16.80;;;;;;;-0.47;71.97;100035.49;107276;1260;61057;-41
2024/01/23 07:23:09;;;;;;;47.30;24.10;;;;;;;-0.40;71.43;100042.73;107294;1257;59702;-40
2024/01/23 07:25:36;;;;;;;56.00;29.00;;;;;;;-0.39;71.83;100036.65;107276;1257;74249;-40
2024/01/23 07:28:03;;;;;;;35.90;19.10;;;;;;;-0.38;71.68;100041.55;107229;1257;69319;-40
2024/01/23 07:30:32;;;;;;;41.20;19.80;;;;;;;-0.38;71.62;100035.57;107219;1258;71411;-40
2024/01/23 07:32:58;;;;;;;36.40;19.80;;;;;;;-0.35;71.41;100042.06;107196;1257;61134;-40
2024/01/23 07:35:27;;;;;;;48.90;24.30;;;;;;;-0.27;71.16;100029.90;107327;1257;60076;-40
2024/01/23 07:37:53;;;;;;;30.10;17.30;;;;;;;-0.25;71.22;100036.35;107234;1257;74231;-40
2024/01/23 07:40:20;;;;;;;36.00;20.30;;;;;;;-0.27;71.40;100035.75;107325;1257;69642;-41
2024/01/23 07:42:47;;;;;;;36.80;18.60;;;;;;;-0.27;71.70;100036.88;107272;1256;73100;-39
2024/01/23 07:45:14;;;;;;;31.80;16.70;;;;;;;-0.27;71.63;100027.77;107348;1256;60456;-40
2024/01/23 07:47:41;;;;;;;31.90;19.90;;;;;;;-0.19;71.59;100034.30;107296;1257;60684;-40
2024/01/23 07:50:08;;;;;;;35.40;21.60;;;;;;;-0.15;71.29;100037.59;107329;1261;74416;-39
2024/01/23 07:52:35;;;;;;;25.40;17.60;;;;;;;-0.15;71.47;100034.98;107312;1258;66850;-40
2024/01/23 07:55:03;;;;;;;24.70;16.10;;;;;;;-0.17;71.41;100036.26;107314;1258;73411;-40
2024/01/23 07:57:30;;;;;;;19.40;12.50;;;;;;;-0.17;71.74;100032.90;107288;1258;60283;-40
2024/01/23 07:59:57;;;;;;;15.70;11.00;;;;;;;-0.16;71.92;100024.59;107364;1257;59994;-40
2024/01/23 08:02:25;;;;;;;15.30;10.70;;;;;;;-0.03;71.58;100029.59;107315;1258;73384;-40
2024/01/23 08:04:52;;;;;;;17.40;11.30;;;;;;;-0.01;71.65;100032.42;107333;1258;69218;-40
2024/01/23 08:07:19;;;;;;;14.90;10.70;;;;;;;-0.02;71.49;100040.20;107327;1256;72684;-40
2024/01/23 08:09:46;;;;;;;17.80;11.80;;;;;;;0.00;72.01;100035.83;107333;1257;60328;-40
2024/01/23 08:12:14;;;;;;;18.30;9.90;;;;;;;0.04;71.85;100038.20;107359;1257;60400;-40
2024/01/23 08:14:41;;;;;;;16.20;9.70;;;;;;;0.15;71.59;100034.27;107340;1257;72352;-40
2024/01/23 08:17:10;;;;;;;16.10;10.70;;;;;;;0.20;71.44;100031.57;107317;1257;67602;-40
2024/01/23 08:19:40;;;;;;;16.50;10.60;;;;;;;0.21;71.44;100033.38;107276;1257;72498;-40
2024/01/23 08:22:07;;;;;;;15.60;11.30;;;;;;;0.23;71.28;100039.29;107284;1258;60447;-40
2024/01/23 08:24:34;;;;;;;14.50;10.60;;;;;;;0.21;71.24;100036.41;107317;1256;61078;-40
2024/01/23 08:27:01;;;;;;;15.40;10.00;;;;;;;0.25;70.72;100029.46;107227;1257;73593;-40
2024/01/23 08:29:28;;;;;;;14.10;9.10;;;;;;;0.32;70.45;100036.98;107302;1257;68599;-40
2024/01/23 08:31:55;;;;;;;15.30;9.80;;;;;;;0.33;70.37;100035.40;107296;1257;71313;-40
2024/01/23 08:34:22;;;;;;;16.80;10.20;;;;;;;0.31;70.59;100037.21;107311;1258;60341;-40
2024/01/23 08:36:49;;;;;;;16.20;11.50;;;;;;;0.30;70.67;100040.36;107301;1257;60970;-40
2024/01/23 08:39:16;;;;;;;15.10;9.80;;;;;;;0.28;70.94;100038.36;107276;1257;73664;-40
2024/01/23 08:41:43;;;;;;;13.40;9.20;;;;;;;0.32;70.81;100039.19;107269;1257;69097;-40
2024/01/23 08:44:10;;;;;;;20.80;10.20;;;;;;;0.39;70.48;100041.86;107282;1257;72666;-40
2024/01/23 08:46:37;;;;;;;15.10;10.30;;;;;;;0.40;70.72;100032.25;107283;1260;60425;-40
2024/01/23 08:49:04;;;;;;;16.30;10.20;;;;;;;0.38;70.70;100031.84;107220;1257;60453;-40
2024/01/23 08:51:31;;;;;;;18.00;10.40;;;;;;;0.38;70.57;100041.98;106446;1256;1002898;-40
2024/01/23 08:54:00;;;;;;;11.80;8.90;;;;;;;0.36;70.65;100034.89;107259;1257;69165;-41
2024/01/23 08:56:27;;;;;;;13.60;9.90;;;;;;;0.44;70.43;100039.81;107210;1257;71778;-40
2024/01/23 08:58:53;;;;;;;22.90;13.10;;;;;;;0.48;70.36;100028.75;107208;1260;59672;-40
2024/01/23 09:01:20;;;;;;;18.70;13.30;;;;;;;0.50;70.34;100021.89;107197;1257;60316;-40
2024/01/23 09:03:47;;;;;;;20.90;15.20;;;;;;;0.49;70.40;100030.54;107243;1256;73892;-40
2024/01/23 09:06:14;;;;;;;26.50;17.30;;;;;;;0.49;70.30;100022.86;107251;1257;68714;-40
2024/01/23 09:08:44;;;;;;;21.80;14.30;;;;;;;0.54;70.66;100023.00;107198;1257;72742;-40
2024/01/23 09:11:12;;;;;;;18.00;11.70;;;;;;;0.65;69.85;100015.41;107236;1257;60472;-40
2024/01/23 09:13:39;;;;;;;23.50;14.20;;;;;;;0.68;69.75;100020.02;107230;1258;60450;-40
2024/01/23 09:16:06;;;;;;;23.30;14.40;;;;;;;0.70;70.00;100013.44;107237;1257;74258;-40
2024/01/23 09:18:33;;;;;;;16.30;11.20;;;;;;;0.70;69.60;100018.23;107325;1256;67486;-40
2024/01/23 09:21:02;;;;;;;22.90;14.00;;;;;;;0.70;69.65;100017.60;106547;1257;1002916;-40
2024/01/23 09:23:29;;;;;;;18.80;11.90;;;;;;;0.69;69.58;100016.11;107315;1257;61193;-40
2024/01/23 09:25:56;;;;;;;18.00;10.00;;;;;;;0.77;69.57;100019.73;107321;1256;60790;-40
2024/01/23 09:28:23;;;;;;;20.50;12.20;;;;;;;0.80;69.32;100026.55;107279;1257;72593;-40
2024/01/23 09:30:50;;;;;;;18.60;11.30;;;;;;;0.80;69.42;100026.66;107320;1257;68898;-41
2024/01/23 09:33:17;;;;;;;17.60;10.50;;;;;;;0.80;69.87;100019.55;107285;1258;72636;-40
2024/01/23 09:35:44;;;;;;;18.60;10.50;;;;;;;0.81;70.04;100019.50;107301;1260;60412;-40
2024/01/23 09:38:11;;;;;;;13.40;9.70;;;;;;;0.85;69.57;100020.36;107217;1256;60459;-40
2024/01/23 09:40:38;;;;;;;13.90;9.80;;;;;;;0.92;69.49;100015.52;107204;1257;73592;-40
2024/01/23 09:43:05;;;;;;;17.90;10.70;;;;;;;0.94;69.40;100008.34;107285;1257;68546;-40
2024/01/23 09:45:32;;;;;;;14.10;10.20;;;;;;;0.92;69.55;100012.04;107287;1258;72616;-41
2024/01/23 09:47:59;;;;;;;17.50;10.80;;;;;;;0.91;69.55;100017.34;107071;1257;60329;-41
2024/01/23 09:50:27;;;;;;;16.00;10.50;;;;;;;0.90;69.26;100015.69;107254;1258;60460;-41
2024/01/23 09:52:55;;;;;;;14.20;9.50;;;;;;;0.90;69.29;100012.32;107272;1257;73924;-40
2024/01/23 09:55:22;;;;;;;15.20;10.50;;;;;;;1.00;69.41;100010.69;107255;1257;68686;-40
2024/01/23 09:57:49;;;;;;;18.90;10.10;;;;;;;1.04;69.01;100006.39;107263;1257;72254;-41
2024/01/23 10:00:17;;;;;;;16.20;10.30;;;;;;;1.05;69.14;100000.51;107281;1256;60264;-40
2024/01/23 10:02:44;;;;;;;16.90;10.50;;;;;;;1.06;68.92;99989.98;107333;1260;60440;-41
2024/01/23 10:05:17;;;;;;;15.10;10.30;;;;;;;1.07;68.89;99990.27;107304;1257;73649;-41
2024/01/23 10:07:44;;;;;;;15.30;9.90;;;;;;;1.08;69.12;99999.66;107272;1257;67646;-40
2024/01/23 10:10:16;;;;;;;14.70;9.60;;;;;;;1.16;68.90;99992.17;107244;1257;72483;-41
2024/01/23 10:12:45;;;;;;;15.90;10.40;;;;;;;1.24;68.61;99990.98;107301;1257;60527;-41
2024/01/23 10:15:14;;;;;;;13.20;7.80;;;;;;;1.25;68.41;99995.77;107370;1260;60320;-40
2024/01/23 10:17:41;;;;;;;24.60;13.70;;;;;;;1.23;68.13;99999.64;107305;1256;73871;-40
2024/01/23 10:20:08;;;;;;;26.30;17.00;;;;;;;1.19;68.49;99993.01;107274;1257;68766;-41
2024/01/23 10:22:36;;;;;;;16.50;11.90;;;;;;;1.16;68.68;99992.79;107313;1257;71872;-41
2024/01/23 10:25:06;;;;;;;17.30;11.90;;;;;;;1.15;68.65;99996.89;107250;1257;61109;-41
2024/01/23 10:27:36;;;;;;;22.60;18.30;;;;;;;1.18;68.06;99999.79;107301;1256;60561;-40
2024/01/23 10:30:03;;;;;;;16.30;12.10;;;;;;;1.21;68.21;100000.63;107317;1260;74376;-41
2024/01/23 10:32:30;;;;;;;16.00;11.30;;;;;;;1.17;68.71;99991.58;107223;1257;67351;-41
2024/01/23 10:34:57;;;;;;;15.40;10.30;;;;;;;1.16;69.06;99992.30;107228;1260;72538;-41
2024/01/23 10:37:24;;;;;;;17.00;11.20;;;;;;;1.14;69.35;99992.09;107208;1257;60549;-41
2024/01/23 10:39:51;;;;;;;15.20;10.30;;;;;;;1.14;69.44;99993.91;107195;1257;60454;-41
2024/01/23 10:42:18;;;;;;;17.20;10.00;;;;;;;1.20;69.24;100001.11;107275;1256;73840;-41
2024/01/23 10:44:48;;;;;;;15.00;10.10;;;;;;;1.26;69.13;99997.20;107259;1256;68550;-41
2024/01/23 10:47:16;;;;;;;16.50;10.50;;;;;;;1.27;68.94;100001.35;107246;1257;73705;-41
2024/01/23 10:49:44;;;;;;;15.10;10.00;;;;;;;1.26;68.85;99998.42;107292;1257;60344;-41
2024/01/23 10:52:15;;;;;;;17.60;10.50;;;;;;;1.27;68.87;99992.86;107329;1257;60555;-41
2024/01/23 10:54:46;;;;;;;14.60;10.30;;;;;;;1.24;68.97;99987.98;107256;1257;71932;-39
2024/01/23 10:57:23;;;;;;;18.70;10.30;;;;;;;1.21;69.19;99983.90;107252;1257;68047;-40
2024/01/23 10:59:50;;;;;;;15.60;10.50;;;;;;;1.28;69.21;99977.90;107308;1256;71457;-40
2024/01/23 11:02:30;;;;;;;17.00;10.30;;;;;;;1.34;68.98;99983.93;107266;1256;60329;-40
2024/01/23 11:04:58;;;;;;;15.90;10.50;;;;;;;1.33;69.10;99982.48;107272;1257;60432;-40
2024/01/23 11:07:34;;;;;;;16.60;10.90;;;;;;;1.31;69.18;99981.98;107323;1257;73866;-40